createdAt,value
2022-09-12T00:04:40.800Z,100.00
2022-09-12T00:09:42.292Z,100.00
2022-09-12T00:14:43.705Z,100.00
2022-09-12T00:19:45.114Z,100.00
2022-09-12T00:24:46.572Z,100.00
2022-09-12T00:29:48.026Z,100.00
2022-09-12T00:34:49.529Z,100.00
2022-09-12T00:39:51.070Z,100.00
2022-09-12T00:44:53.211Z,100.00
2022-09-12T00:50:13.688Z,100.00
2022-09-12T00:55:51.468Z,100.00
2022-09-12T01:00:53.148Z,100.00
2022-09-12T01:06:00.939Z,100.00
2022-09-12T01:11:02.460Z,100.00
2022-09-12T01:16:05.938Z,100.00
2022-09-12T01:21:40.218Z,100.00
2022-09-12T01:27:06.418Z,100.00
2022-09-12T01:32:35.617Z,100.00
2022-09-12T01:37:54.608Z,100.00
2022-09-12T01:43:08.546Z,100.00
2022-09-12T01:48:20.387Z,100.00
2022-09-12T01:53:34.667Z,100.00
2022-09-12T01:58:50.779Z,100.00
2022-09-12T02:04:10.330Z,100.00
2022-09-12T02:09:29.792Z,100.00
2022-09-12T02:14:37.430Z,100.00
2022-09-12T02:20:05.795Z,100.00
2022-09-12T02:25:11.470Z,100.00
2022-09-12T02:30:16.444Z,100.00
2022-09-12T02:35:23.370Z,100.00
2022-09-12T02:40:25.551Z,100.00
2022-09-12T02:45:27.555Z,100.00
2022-09-12T02:50:29.832Z,100.00
2022-09-12T02:55:33.318Z,100.00
2022-09-12T03:00:41.783Z,100.00
2022-09-12T03:05:59.360Z,100.00
2022-09-12T03:11:38.330Z,100.00
2022-09-12T03:17:00.083Z,100.00
2022-09-12T03:22:12.400Z,100.00
2022-09-12T03:27:32.563Z,100.00
2022-09-12T03:33:00.094Z,100.00
2022-09-12T03:38:01.545Z,100.00
2022-09-12T03:43:07.954Z,100.00
2022-09-12T03:48:09.412Z,100.00
2022-09-12T03:53:14.092Z,100.00
2022-09-12T03:58:18.400Z,100.00
2022-09-12T04:03:19.981Z,100.00
2022-09-12T04:08:21.420Z,100.00
2022-09-12T04:13:22.872Z,100.00
2022-09-12T04:18:24.324Z,100.00
2022-09-12T04:23:25.716Z,100.00
2022-09-12T04:28:29.035Z,100.00
2022-09-12T04:33:30.603Z,100.00
2022-09-12T04:38:32.785Z,100.00
2022-09-12T04:43:34.673Z,100.00
2022-09-12T04:48:36.745Z,100.00
2022-09-12T04:53:38.508Z,100.00
2022-09-12T04:58:39.982Z,100.00
2022-09-12T05:03:45.322Z,100.00
2022-09-12T05:08:47.465Z,100.00
2022-09-12T05:13:49.559Z,100.00
2022-09-12T05:18:51.710Z,100.00
2022-09-12T05:23:55.041Z,100.00
2022-09-12T05:28:56.512Z,100.00
2022-09-12T05:33:58.076Z,100.00
2022-09-12T05:39:00.573Z,100.00
2022-09-12T05:44:05.361Z,100.00
2022-09-12T05:49:09.752Z,100.00
2022-09-12T05:54:14.100Z,100.00
2022-09-12T05:59:20.712Z,100.00
2022-09-12T06:04:23.676Z,100.00
2022-09-12T06:09:25.643Z,100.00
2022-09-12T06:14:27.036Z,100.00
2022-09-12T06:19:28.659Z,100.00
2022-09-12T06:24:30.059Z,100.00
2022-09-12T06:29:32.590Z,100.00
2022-09-12T06:34:33.992Z,100.00
2022-09-12T06:39:36.555Z,100.00
2022-09-12T06:44:37.979Z,100.00
2022-09-12T06:49:39.430Z,100.00
2022-09-12T06:54:40.828Z,100.00
2022-09-12T06:59:42.394Z,100.00
2022-09-12T07:04:43.796Z,100.00
2022-09-12T07:09:45.189Z,100.00
2022-09-12T07:14:46.692Z,100.00
2022-09-12T07:19:48.173Z,100.00
2022-09-12T07:24:50.391Z,100.00
2022-09-12T07:29:52.132Z,100.00
2022-09-12T07:34:53.736Z,100.00
2022-09-12T07:39:55.738Z,100.00
2022-09-12T07:44:57.168Z,100.00
2022-09-12T07:49:59.057Z,100.00
2022-09-12T07:55:00.635Z,100.00
2022-09-12T08:00:03.525Z,100.00
2022-09-12T08:05:05.446Z,100.00
2022-09-12T08:10:08.840Z,100.00
2022-09-12T08:15:11.589Z,100.00
2022-09-12T08:20:13.186Z,99.41
2022-09-12T08:25:14.894Z,94.68
2022-09-12T08:30:16.322Z,92.76
2022-09-12T08:35:17.816Z,88.80
2022-09-12T08:40:19.434Z,88.91
2022-09-12T08:45:36.902Z,86.76
2022-09-12T08:50:49.237Z,87.44
2022-09-12T08:55:59.235Z,85.43
2022-09-12T09:01:19.757Z,85.66
2022-09-12T09:06:34.733Z,83.82
2022-09-12T09:12:03.532Z,85.64
2022-09-12T09:17:13.057Z,84.15
2022-09-12T09:22:22.694Z,81.93
2022-09-12T09:27:41.903Z,81.98
2022-09-12T09:32:47.741Z,78.96
2022-09-12T09:38:05.912Z,79.12
2022-09-12T09:43:22.822Z,77.62
2022-09-12T09:48:36.194Z,78.02
2022-09-12T09:53:56.573Z,75.30
2022-09-12T09:59:18.937Z,74.80
2022-09-12T10:04:23.482Z,73.18
2022-09-12T10:09:27.947Z,68.12
2022-09-12T10:14:41.240Z,72.46
2022-09-12T10:19:42.888Z,70.26
2022-09-12T10:24:50.284Z,70.65
2022-09-12T10:30:00.515Z,67.40
2022-09-12T10:35:07.344Z,65.52
2022-09-12T10:40:23.837Z,67.50
2022-09-12T10:45:37.525Z,67.67
2022-09-12T10:50:41.726Z,69.54
2022-09-12T10:56:09.380Z,67.57
2022-09-12T11:01:29.533Z,66.75
2022-09-12T11:06:49.777Z,67.11
2022-09-12T11:12:07.688Z,67.73
2022-09-12T11:17:25.695Z,72.83
2022-09-12T11:22:35.921Z,69.60
2022-09-12T11:27:54.536Z,69.62
2022-09-12T11:33:24.581Z,69.42
2022-09-12T11:38:47.497Z,68.93
2022-09-12T11:44:35.275Z,62.45
2022-09-12T11:49:49.888Z,57.38
2022-09-12T11:55:00.342Z,58.08
2022-09-12T12:00:19.859Z,58.69
2022-09-12T12:05:29.805Z,57.61
2022-09-12T12:10:43.415Z,56.22
2022-09-12T12:16:07.478Z,56.02
2022-09-12T12:21:28.363Z,57.50
2022-09-12T12:26:38.781Z,59.10
2022-09-12T12:31:59.028Z,58.66
2022-09-12T12:37:29.820Z,59.75
2022-09-12T12:42:34.325Z,60.81
2022-09-12T12:47:35.791Z,60.53
2022-09-12T12:52:58.882Z,61.96
2022-09-12T12:58:02.218Z,61.98
2022-09-12T13:03:06.594Z,61.12
2022-09-12T13:08:24.622Z,57.86
2022-09-12T13:13:44.076Z,53.13
2022-09-12T13:18:49.148Z,54.24
2022-09-12T13:24:03.072Z,55.60
2022-09-12T13:29:12.009Z,56.10
2022-09-12T13:34:20.576Z,56.89
2022-09-12T13:39:28.385Z,53.51
2022-09-12T13:44:32.827Z,52.98
2022-09-12T13:49:37.516Z,54.25
2022-09-12T13:54:38.963Z,53.84
2022-09-12T13:59:42.501Z,55.97
2022-09-12T14:05:06.929Z,58.56
2022-09-12T14:10:08.650Z,59.00
2022-09-12T14:15:25.927Z,60.11
2022-09-12T14:20:36.146Z,59.80
2022-09-12T14:25:41.283Z,61.00
2022-09-12T14:31:21.012Z,63.07
2022-09-12T14:36:30.725Z,63.77
2022-09-12T14:41:37.212Z,66.04
2022-09-12T14:46:41.043Z,66.01
2022-09-12T14:51:56.255Z,66.55
2022-09-12T14:56:58.933Z,67.56
2022-09-12T15:02:21.801Z,68.48
2022-09-12T15:07:31.037Z,67.23
2022-09-12T15:12:32.576Z,69.28
2022-09-12T15:17:33.982Z,70.58
2022-09-12T15:22:37.507Z,69.24
2022-09-12T15:27:42.310Z,70.07
2022-09-12T15:32:44.464Z,70.88
2022-09-12T15:37:45.887Z,70.25
2022-09-12T15:42:47.317Z,70.88
2022-09-12T15:47:48.765Z,69.78
2022-09-12T15:52:50.577Z,70.93
2022-09-12T15:57:52.180Z,71.00
2022-09-12T16:02:54.003Z,72.33
2022-09-12T16:07:55.585Z,71.54
2022-09-12T16:12:58.142Z,72.42
2022-09-12T16:17:59.532Z,73.58
2022-09-12T16:23:01.060Z,74.35
2022-09-12T16:28:03.428Z,75.44
2022-09-12T16:33:05.325Z,76.77
2022-09-12T16:38:07.212Z,76.83
2022-09-12T16:43:08.740Z,77.32
2022-09-12T16:48:10.186Z,78.40
2022-09-12T16:53:11.623Z,78.71
2022-09-12T16:58:13.085Z,79.48
2022-09-12T17:03:16.810Z,80.00
2022-09-12T17:08:18.299Z,80.19
2022-09-12T17:13:19.779Z,82.04
2022-09-12T17:18:21.675Z,82.40
2022-09-12T17:23:24.721Z,83.03
2022-09-12T17:28:27.285Z,83.62
2022-09-12T17:33:29.927Z,83.55
2022-09-12T17:38:34.053Z,84.73
2022-09-12T17:43:37.882Z,84.87
2022-09-12T17:48:39.323Z,87.68
2022-09-12T17:53:42.188Z,88.17
2022-09-12T17:58:43.832Z,90.63
2022-09-12T18:03:46.396Z,90.11
2022-09-12T18:08:47.846Z,89.90
2022-09-12T18:13:49.426Z,89.45
2022-09-12T18:18:51.176Z,88.88
2022-09-12T18:23:52.636Z,89.28
2022-09-12T18:28:54.571Z,88.69
2022-09-12T18:33:57.633Z,89.15
2022-09-12T18:38:59.672Z,88.85
2022-09-12T18:44:02.017Z,88.80
2022-09-12T18:49:03.573Z,89.07
2022-09-12T18:54:08.669Z,88.40
2022-09-12T18:59:12.714Z,89.50
2022-09-12T19:04:14.139Z,88.68
2022-09-12T19:09:18.286Z,89.65
2022-09-12T19:14:26.100Z,89.56
2022-09-12T19:19:27.899Z,89.34
2022-09-12T19:24:29.349Z,90.67
2022-09-12T19:29:31.264Z,90.84
2022-09-12T19:34:32.673Z,91.51
2022-09-12T19:39:34.413Z,91.71
2022-09-12T19:44:35.995Z,91.48
2022-09-12T19:49:37.393Z,92.10
2022-09-12T19:54:38.938Z,91.95
2022-09-12T19:59:40.371Z,91.51
2022-09-12T20:04:42.042Z,91.47
2022-09-12T20:09:43.543Z,91.79
2022-09-12T20:14:45.154Z,90.98
2022-09-12T20:19:46.756Z,90.12
2022-09-12T20:24:48.913Z,89.59
2022-09-12T20:29:51.104Z,88.34
2022-09-12T20:34:53.016Z,88.79
2022-09-12T20:39:54.626Z,87.92
2022-09-12T20:44:56.111Z,87.46
2022-09-12T20:49:57.545Z,87.33
2022-09-12T20:54:59.080Z,85.39
2022-09-12T21:00:00.556Z,84.95
2022-09-12T21:05:02.124Z,83.76
2022-09-12T21:10:03.943Z,83.74
2022-09-12T21:15:06.111Z,83.19
2022-09-12T21:20:11.387Z,82.82
2022-09-12T21:25:13.280Z,83.33
2022-09-12T21:30:14.929Z,84.05
2022-09-12T21:35:16.539Z,83.52
2022-09-12T21:40:18.077Z,83.63
2022-09-12T21:45:20.191Z,82.71
2022-09-12T21:50:21.694Z,83.16
2022-09-12T21:55:27.203Z,82.57
2022-09-12T22:00:28.664Z,83.08
2022-09-12T22:05:32.618Z,82.72
2022-09-12T22:10:34.299Z,83.05
2022-09-12T22:15:40.552Z,82.92
2022-09-12T22:20:42.439Z,81.90
2022-09-12T22:25:43.967Z,81.21
2022-09-12T22:30:50.616Z,80.87
2022-09-12T22:35:52.160Z,81.81
2022-09-12T22:40:53.935Z,82.18
2022-09-12T22:45:55.449Z,84.13
2022-09-12T22:50:57.105Z,84.18
2022-09-12T22:55:58.613Z,84.06
2022-09-12T23:01:00.100Z,87.06
2022-09-12T23:06:02.195Z,89.16
2022-09-12T23:11:09.781Z,90.43
2022-09-12T23:16:19.747Z,89.78
2022-09-12T23:21:21.968Z,92.21
2022-09-12T23:26:28.101Z,96.70
2022-09-12T23:31:31.526Z,99.62
2022-09-12T23:36:33.553Z,100.00
2022-09-12T23:41:35.110Z,100.00
2022-09-12T23:46:36.559Z,100.00
2022-09-12T23:51:37.965Z,100.00
2022-09-12T23:56:39.548Z,100.00
